Savoonga Airport
PASA : now visible

Aeroporto :











RITROVATECI SU...

 
LOGIN :

Iscrizione | Disclaimer

   EN    FR    IT 

 









Sommario :    VFR   VFR Marginale   IFR   IFR Intensivo   IFR Molto Intensivo
Visibilità : 
Base nubi : 
>= 8 km
>= 3000ft
5 / 8 km
1000 / 3000 ft
1500m / 5 km
500 / 1000 ft
800 / 1500m
200 / 500 ft
< 800m
< 200 ft
Simboli :   Temporali  Nebbia  Neve Forte  Precipitazioni Forti  Vento > 20 kt






- Altitudine del aeroporto : 53 ft
- Codice IATA : SVA


PASA - Savoonga

ULTIMO METAR :
  • 011856Z AUTO 06007KT 9SM OVC005 01/00 A2964 RMK AO2 SLP038 T00110000 FZRANO

METARs OBSOLETI :
  • 011828Z AUTO 02004KT 9SM OVC005 01/00 A2964 RMK AO2 FZRANO
  • 011756Z AUTO 33003KT 9SM OVC007 02/00 A2964 RMK AO2 SLP037 T00170000 10033 20017 53007 FZRANO
  • 011656Z AUTO 32005KT 10SM OVC009 02/00 A2963 RMK AO2 SLP033 T00220000 FZRANO
  • 011622Z AUTO 09004KT 10SM BKN011 02/01 A2962 RMK AO2 CIG 009V013 FZRANO

TAF N/A
FIR PAZA / America del Nord



MetMap, La meteo Aeronautica in un colpo d'occhio ! - Copyright ORBIFLY Dicembre 2007 - Disclaimer

ORBIFLY MET'MAP TEAM :

Programmazione e sviluppo : Alexandra Zaïnal
Concezione : Baudouin d'Aumeries
Aiuto per la programmazione : Marc-Olivier Méhu
Supporto tecnico e logistico : Manuel Goepfert
Aiuto per la traduzione : Arnaldo La Scala

Contatto : metmap@orbifly.com




FONTI E CREDITI :

   NOAA       Earth
Advisory